Time;durP1;ratioP1;P1;durP2;ratioP2;P2;SDS_P1;SDS_P2;PMS_P1;PMS_P2;Temp;Humidity;BMP_temperature;BMP_pressure;BME280_temperature;BME280_humidity;BME280_pressure;Samples;Min_cycle;Max_cycle;Signal;HPM_P1;HPM_P2
2022/05/28 00:02:02;;;;;;;0.40;0.30;;;;;;;25.54;39.88;99383.50;5069467;28;20037;-67
2022/05/28 00:04:27;;;;;;;0.25;0.22;;;;;;;25.54;39.95;99380.72;5069257;28;20119;-67
2022/05/28 00:06:56;;;;;;;0.73;0.45;;;;;;;25.54;39.67;99372.31;5069415;28;20144;-67
2022/05/28 00:09:21;;;;;;;0.35;0.35;;;;;;;25.53;40.00;99376.31;5069027;28;20056;-67
2022/05/28 00:11:47;;;;;;;0.40;0.30;;;;;;;25.52;39.79;99377.53;5069492;28;20037;-67
2022/05/28 00:14:12;;;;;;;0.73;0.50;;;;;;;25.51;40.07;99379.53;5069364;28;20427;-67
2022/05/28 00:16:39;;;;;;;0.70;0.45;;;;;;;25.49;39.85;99379.13;5069311;28;20044;-67
2022/05/28 00:19:06;;;;;;;0.52;0.30;;;;;;;25.49;40.13;99364.31;5069197;28;20072;-69
2022/05/28 00:21:32;;;;;;;0.50;0.30;;;;;;;25.47;39.95;99358.34;5069342;28;20048;-70
2022/05/28 00:23:58;;;;;;;0.60;0.40;;;;;;;25.48;39.91;99363.53;5069080;28;20093;-70
2022/05/28 00:26:23;;;;;;;0.38;0.22;;;;;;;25.47;39.94;99358.34;5068896;28;20049;-70
2022/05/28 00:28:50;;;;;;;0.22;0.20;;;;;;;25.48;40.20;99362.75;5069164;28;20127;-70
2022/05/28 00:31:15;;;;;;;0.30;0.30;;;;;;;25.48;40.18;99362.75;5069033;28;20407;-70
2022/05/28 00:33:41;;;;;;;0.25;0.25;;;;;;;25.45;39.97;99357.97;5069040;28;20185;-70
2022/05/28 00:36:09;;;;;;;0.30;0.28;;;;;;;25.46;40.11;99349.16;5068949;28;20557;-70
2022/05/28 00:38:35;;;;;;;0.35;0.30;;;;;;;25.46;40.00;99351.16;5069104;28;20041;-70
2022/05/28 00:41:00;;;;;;;0.20;0.20;;;;;;;25.46;40.19;99360.34;5068919;28;20049;-70
2022/05/28 00:43:28;;;;;;;0.50;0.40;;;;;;;25.45;39.97;99341.16;5068674;28;20048;-70
2022/05/28 00:46:23;;;;;;;0.50;0.38;;;;;;;25.45;40.17;99344.75;5068713;28;20079;-70
2022/05/28 00:48:54;;;;;;;0.98;0.40;;;;;;;25.44;40.00;99343.16;5066925;28;20082;-70
2022/05/28 00:51:28;;;;;;;0.30;0.30;;;;;;;25.44;40.26;99342.38;5068801;28;20378;-70
2022/05/28 00:53:59;;;;;;;0.30;0.30;;;;;;;25.43;40.41;99340.75;5069001;28;20123;-70
2022/05/28 00:56:26;;;;;;;0.63;0.40;;;;;;;25.42;40.35;99348.34;5068639;28;20140;-70
2022/05/28 00:58:52;;;;;;;0.40;0.40;;;;;;;25.42;40.40;99344.75;5068864;28;20052;-70
2022/05/28 01:01:21;;;;;;;0.82;0.30;;;;;;;25.41;40.40;99337.56;5068807;28;20040;-70
2022/05/28 01:04:10;;;;;;;0.50;0.30;;;;;;;25.41;40.39;99351.56;5068586;28;20064;-70
2022/05/28 01:07:04;;;;;;;1.08;0.40;;;;;;;25.40;40.45;99335.97;5059327;28;20044;-70
2022/05/28 01:09:39;;;;;;;0.50;0.40;;;;;;;25.39;40.34;99337.19;5072122;28;20063;-70
2022/05/28 01:12:13;;;;;;;0.40;0.30;;;;;;;25.38;40.18;99330.00;5071949;28;20078;-70
2022/05/28 01:14:53;;;;;;;0.30;0.30;;;;;;;25.40;40.16;99333.19;5072046;28;20504;-70
2022/05/28 01:17:27;;;;;;;0.30;0.30;;;;;;;25.39;40.52;99326.78;5071774;28;20092;-70
2022/05/28 01:20:01;;;;;;;0.30;0.30;;;;;;;25.36;40.48;99322.00;5071963;28;20046;-70
2022/05/28 01:22:49;;;;;;;0.47;0.40;;;;;;;25.37;40.43;99322.81;5071893;28;20048;-70
2022/05/28 01:25:36;;;;;;;0.30;0.30;;;;;;;25.37;40.42;99314.41;5071915;28;20433;-70
2022/05/28 01:28:09;;;;;;;0.47;0.30;;;;;;;25.36;40.32;99316.41;5072046;28;20086;-70
2022/05/28 01:30:38;;;;;;;0.73;0.40;;;;;;;25.37;40.42;99306.00;5071672;28;20363;-70
2022/05/28 01:33:06;;;;;;;0.30;0.30;;;;;;;25.38;40.25;99296.41;5071579;28;20531;-70
2022/05/28 01:35:33;;;;;;;0.45;0.32;;;;;;;25.38;40.20;99302.78;5053689;28;20060;-70
2022/05/28 01:38:00;;;;;;;0.68;0.40;;;;;;;25.37;40.38;99294.81;5071472;28;20437;-70
2022/05/28 01:40:27;;;;;;;0.30;0.30;;;;;;;25.38;40.43;99296.41;5063248;28;20072;-70
2022/05/28 01:42:55;;;;;;;0.40;0.40;;;;;;;25.38;40.22;99293.59;5071429;28;20048;-70
2022/05/28 01:45:26;;;;;;;0.52;0.43;;;;;;;25.36;40.25;99287.59;5071482;28;20049;-70
2022/05/28 01:47:55;;;;;;;0.57;0.50;;;;;;;25.36;40.06;99276.38;5071323;28;20049;-70
2022/05/28 01:50:24;;;;;;;0.65;0.32;;;;;;;25.37;40.48;99280.81;5071600;28;20048;-70
2022/05/28 01:52:51;;;;;;;0.50;0.40;;;;;;;25.40;40.28;99280.78;5071329;28;20389;-70
2022/05/28 01:55:18;;;;;;;0.43;0.35;;;;;;;25.37;40.24;99273.22;5071363;28;20595;-70
2022/05/28 01:57:45;;;;;;;0.50;0.40;;;;;;;25.35;40.14;99280.41;5071091;28;20109;-70
2022/05/28 02:00:11;;;;;;;0.30;0.30;;;;;;;25.34;40.41;99276.81;5071199;28;20048;-67
2022/05/28 02:02:37;;;;;;;0.47;0.40;;;;;;;25.33;40.28;99261.22;5071210;28;20551;-67
2022/05/28 02:05:03;;;;;;;0.30;0.30;;;;;;;25.32;40.35;99268.03;5071179;28;20051;-67
2022/05/28 02:07:29;;;;;;;0.20;0.20;;;;;;;25.34;40.35;99278.81;5071228;28;20040;-67
2022/05/28 02:10:00;;;;;;;0.40;0.30;;;;;;;25.33;40.58;99266.81;5071197;28;20041;-67
2022/05/28 02:12:30;;;;;;;0.40;0.40;;;;;;;25.34;40.50;99262.00;5071049;28;20056;-67
2022/05/28 02:15:27;;;;;;;0.32;0.32;;;;;;;25.32;40.38;99261.63;5070753;28;20036;-67
2022/05/28 02:18:19;;;;;;;0.30;0.30;;;;;;;25.32;40.41;99256.03;5069839;28;20036;-67
2022/05/28 02:20:59;;;;;;;0.50;0.40;;;;;;;25.31;40.66;99252.44;5036900;28;20496;-67
2022/05/28 02:23:30;;;;;;;0.88;0.60;;;;;;;25.30;40.62;99253.66;5050962;28;20048;-67
2022/05/28 02:26:08;;;;;;;0.70;0.32;;;;;;;25.29;40.79;99248.44;5050837;28;20168;-66
2022/05/28 02:28:35;;;;;;;0.30;0.30;;;;;;;25.28;40.86;99247.63;5050747;28;20083;-66
2022/05/28 02:31:13;;;;;;;0.32;0.30;;;;;;;25.28;40.55;99239.25;5050684;28;20098;-66
2022/05/28 02:33:40;;;;;;;0.35;0.30;;;;;;;25.29;40.87;99245.63;5050325;28;20074;-67
2022/05/28 02:36:05;;;;;;;0.30;0.30;;;;;;;25.27;40.91;99242.47;5061191;28;20047;-67
2022/05/28 02:38:31;;;;;;;0.52;0.40;;;;;;;25.28;40.68;99244.84;5053729;28;20045;-67
2022/05/28 02:40:56;;;;;;;0.30;0.30;;;;;;;25.29;40.72;99245.63;5062732;28;20094;-67
2022/05/28 02:43:23;;;;;;;0.22;0.20;;;;;;;25.28;40.62;99235.66;5058984;28;20041;-67
2022/05/28 02:45:48;;;;;;;0.40;0.40;;;;;;;25.25;40.77;99238.06;5067945;28;20036;-67
2022/05/28 02:48:14;;;;;;;0.40;0.30;;;;;;;25.26;40.96;99241.66;5052365;28;20041;-70
2022/05/28 02:50:39;;;;;;;0.52;0.40;;;;;;;25.25;40.58;99243.66;5068891;28;20052;-70
2022/05/28 02:53:05;;;;;;;0.32;0.32;;;;;;;25.25;40.61;99240.06;5057596;28;20072;-70
2022/05/28 02:55:30;;;;;;;0.38;0.32;;;;;;;25.24;40.68;99242.09;5070390;28;20044;-70
2022/05/28 02:57:56;;;;;;;0.50;0.40;;;;;;;25.21;41.07;99240.09;5071518;28;20508;-70
2022/05/28 03:00:21;;;;;;;0.50;0.40;;;;;;;25.20;40.94;99232.91;5078095;28;20057;-70
2022/05/28 03:02:48;;;;;;;0.82;0.40;;;;;;;25.20;40.77;99234.91;5078107;28;20785;-70
2022/05/28 03:05:17;;;;;;;0.30;0.30;;;;;;;25.20;40.75;99229.31;5078924;28;20044;-70
2022/05/28 03:07:42;;;;;;;0.43;0.40;;;;;;;25.19;40.74;99220.09;5068667;28;20483;-70
2022/05/28 03:10:08;;;;;;;0.20;0.20;;;;;;;25.18;40.78;99232.50;5057048;28;20619;-70
2022/05/28 03:12:34;;;;;;;0.30;0.30;;;;;;;25.18;40.91;99229.72;5070043;28;20047;-70
2022/05/28 03:14:59;;;;;;;0.40;0.35;;;;;;;25.17;41.07;99228.13;5069811;28;20047;-70
2022/05/28 03:17:24;;;;;;;0.30;0.30;;;;;;;25.17;41.05;99230.13;5069849;28;20044;-70
2022/05/28 03:19:50;;;;;;;0.60;0.45;;;;;;;25.17;40.72;99225.31;5069524;28;20063;-70
2022/05/28 03:22:16;;;;;;;0.47;0.30;;;;;;;25.15;40.65;99227.75;5069569;28;20133;-70
2022/05/28 03:24:41;;;;;;;0.68;0.50;;;;;;;25.17;41.04;99232.94;5069482;28;20518;-70
2022/05/28 03:27:06;;;;;;;0.50;0.40;;;;;;;25.16;40.73;99226.53;5069637;28;20032;-70
2022/05/28 03:29:32;;;;;;;0.85;0.40;;;;;;;25.15;40.98;99224.16;5069708;28;20408;-70
2022/05/28 03:31:57;;;;;;;0.20;0.20;;;;;;;25.14;41.08;99219.72;5069466;28;20110;-70
2022/05/28 03:34:23;;;;;;;0.30;0.30;;;;;;;25.14;41.06;99225.34;5069560;28;20531;-70
2022/05/28 03:36:48;;;;;;;0.55;0.40;;;;;;;25.12;40.79;99225.75;5069415;28;20086;-70
2022/05/28 03:39:14;;;;;;;0.20;0.20;;;;;;;25.09;41.14;99223.78;5069517;28;20036;-70
2022/05/28 03:41:40;;;;;;;0.30;0.30;;;;;;;25.12;40.80;99225.75;5069390;28;20047;-70
2022/05/28 03:44:06;;;;;;;0.30;0.30;;;;;;;25.12;40.84;99220.16;5055161;28;20048;-70
2022/05/28 03:46:34;;;;;;;0.28;0.28;;;;;;;25.11;40.94;99221.34;5051601;28;20055;-70
2022/05/28 03:49:20;;;;;;;0.20;0.20;;;;;;;25.12;41.16;99224.97;5069402;28;20124;-70
2022/05/28 03:51:45;;;;;;;0.55;0.40;;;;;;;25.12;41.08;99233.34;5050111;28;20048;-70
2022/05/28 03:54:10;;;;;;;0.50;0.40;;;;;;;25.10;40.99;99227.38;5069296;28;20431;-69
2022/05/28 03:56:39;;;;;;;0.47;0.40;;;;;;;25.11;40.87;99231.75;5069118;28;20056;-70
2022/05/28 03:59:06;;;;;;;0.20;0.20;;;;;;;25.11;40.88;99224.16;5069016;28;20123;-70
2022/05/28 04:01:32;;;;;;;0.40;0.30;;;;;;;25.11;40.91;99223.38;5069198;28;20048;-70
2022/05/28 04:03:58;;;;;;;0.40;0.30;;;;;;;25.12;41.07;99230.56;5069132;28;20045;-67
2022/05/28 04:06:23;;;;;;;0.20;0.20;;;;;;;25.10;41.00;99227.38;5069410;28;20113;-67
2022/05/28 04:08:49;;;;;;;0.30;0.30;;;;;;;25.09;41.18;99225.78;5069074;28;20404;-66
2022/05/28 04:11:14;;;;;;;0.55;0.40;;;;;;;25.06;41.08;99221.00;5068961;28;20040;-67
2022/05/28 04:13:43;;;;;;;0.88;0.55;;;;;;;25.10;40.99;99238.56;5069089;28;20048;-67
2022/05/28 04:16:09;;;;;;;0.40;0.40;;;;;;;25.09;41.21;99223.78;5068918;28;20129;-67
2022/05/28 04:18:35;;;;;;;0.20;0.20;;;;;;;25.08;40.99;99227.00;5068903;28;20492;-66
2022/05/28 04:21:00;;;;;;;0.35;0.35;;;;;;;25.06;41.18;99227.38;5059043;28;20045;-67
2022/05/28 04:23:26;;;;;;;0.50;0.35;;;;;;;25.05;41.00;99225.00;5068947;28;20447;-67
2022/05/28 04:25:51;;;;;;;0.55;0.43;;;;;;;25.06;41.24;99227.38;5069175;28;20044;-67
2022/05/28 04:28:17;;;;;;;0.82;0.40;;;;;;;25.04;40.88;99224.19;5068636;28;20492;-67
2022/05/28 04:30:42;;;;;;;0.40;0.40;;;;;;;25.05;41.34;99223.00;5068567;28;20132;-67
2022/05/28 04:33:08;;;;;;;0.65;0.40;;;;;;;25.05;41.02;99225.78;5068688;28;20045;-66
2022/05/28 04:35:33;;;;;;;0.50;0.40;;;;;;;25.06;41.16;99221.78;5069174;28;20438;-66
2022/05/28 04:37:59;;;;;;;0.40;0.40;;;;;;;25.08;41.34;99224.19;5068619;28;20075;-70
2022/05/28 04:40:24;;;;;;;0.60;0.40;;;;;;;25.05;41.43;99223.00;5070712;28;20409;-67
2022/05/28 04:42:50;;;;;;;2.15;0.47;;;;;;;25.03;41.17;99216.19;5063150;28;20043;-67
2022/05/28 04:45:15;;;;;;;0.30;0.30;;;;;;;25.08;41.46;99227.00;5067226;28;20064;-67
2022/05/28 04:47:40;;;;;;;0.50;0.40;;;;;;;25.06;41.32;99224.59;5072296;28;20231;-67
2022/05/28 04:50:07;;;;;;;0.45;0.40;;;;;;;25.05;41.49;99228.59;5072502;28;20455;-67
2022/05/28 04:52:32;;;;;;;0.40;0.40;;;;;;;25.06;41.57;99223.78;5071828;28;20433;-67
2022/05/28 04:54:57;;;;;;;0.40;0.40;;;;;;;25.06;41.41;99234.97;5072045;28;20041;-67
2022/05/28 04:57:23;;;;;;;0.77;0.50;;;;;;;25.08;41.30;99227.78;5071585;28;20090;-66
2022/05/28 04:59:49;;;;;;;0.47;0.38;;;;;;;25.06;41.58;99221.00;5071937;28;20074;-66
2022/05/28 05:02:15;;;;;;;0.50;0.40;;;;;;;25.07;41.34;99225.38;5071738;28;20102;-70
2022/05/28 05:04:41;;;;;;;0.60;0.50;;;;;;;25.08;41.65;99225.00;5072130;28;20041;-70
2022/05/28 05:07:06;;;;;;;0.20;0.20;;;;;;;25.09;41.64;99226.56;5072017;28;20051;-70
2022/05/28 05:09:32;;;;;;;0.60;0.40;;;;;;;25.08;41.60;99225.00;5071805;28;20400;-70
2022/05/28 05:11:58;;;;;;;0.57;0.40;;;;;;;25.08;41.56;99229.78;5071798;28;20132;-70
2022/05/28 05:14:23;;;;;;;0.70;0.40;;;;;;;25.09;41.57;99220.19;5071843;28;20053;-70
2022/05/28 05:16:49;;;;;;;0.93;0.40;;;;;;;25.07;41.39;99226.16;5071501;28;20450;-70
2022/05/28 05:19:14;;;;;;;0.15;0.15;;;;;;;25.10;41.51;99225.38;5071469;28;20040;-70
2022/05/28 05:21:40;;;;;;;0.45;0.40;;;;;;;25.10;41.39;99218.97;5071854;28;20067;-70
2022/05/28 05:24:05;;;;;;;0.60;0.40;;;;;;;25.09;41.70;99220.97;5071659;28;20036;-70
2022/05/28 05:26:31;;;;;;;0.47;0.40;;;;;;;25.09;41.50;99226.56;5071606;28;20044;-70
2022/05/28 05:28:56;;;;;;;0.45;0.35;;;;;;;25.07;41.71;99216.97;5071718;28;20128;-70
2022/05/28 05:31:22;;;;;;;0.80;0.40;;;;;;;25.08;41.37;99216.59;5071376;28;20052;-70
2022/05/28 05:33:47;;;;;;;0.43;0.40;;;;;;;25.12;41.52;99224.97;5071363;28;20131;-70
2022/05/28 05:36:13;;;;;;;0.40;0.40;;;;;;;25.11;41.61;99221.34;5071658;28;20131;-70
2022/05/28 05:38:39;;;;;;;0.73;0.50;;;;;;;25.10;41.67;99216.97;5071362;28;20445;-70
2022/05/28 05:41:04;;;;;;;0.32;0.30;;;;;;;25.11;41.54;99212.16;5071572;28;20440;-70
2022/05/28 05:43:30;;;;;;;0.40;0.40;;;;;;;25.13;41.23;99218.16;5038970;28;20481;-70
2022/05/28 05:45:58;;;;;;;0.50;0.40;;;;;;;25.13;41.44;99215.34;5069437;28;20032;-70
2022/05/28 05:48:25;;;;;;;0.30;0.30;;;;;;;25.14;41.29;99217.72;5071318;28;20041;-70
2022/05/28 05:50:51;;;;;;;0.50;0.40;;;;;;;25.16;41.35;99220.16;5071055;28;20086;-70
2022/05/28 05:53:17;;;;;;;0.40;0.40;;;;;;;25.14;41.38;99220.53;5071172;28;20048;-70
2022/05/28 05:55:43;;;;;;;0.40;0.35;;;;;;;25.13;41.53;99204.16;5070807;28;20110;-70
2022/05/28 05:58:10;;;;;;;0.60;0.43;;;;;;;25.16;41.51;99214.53;5070979;28;20230;-70
2022/05/28 06:00:36;;;;;;;0.70;0.50;;;;;;;25.16;41.25;99220.94;5070763;28;20045;-70
2022/05/28 06:03:02;;;;;;;0.43;0.40;;;;;;;25.21;41.33;99214.09;5071214;28;20067;-70
2022/05/28 06:05:27;;;;;;;0.65;0.40;;;;;;;25.24;40.98;99208.47;5071082;28;20132;-70
2022/05/28 06:07:52;;;;;;;0.45;0.30;;;;;;;25.31;40.87;99201.25;5070807;28;20123;-70
2022/05/28 06:10:18;;;;;;;0.60;0.40;;;;;;;25.32;40.98;99200.84;5070951;28;20036;-70
2022/05/28 06:12:43;;;;;;;0.65;0.40;;;;;;;25.35;41.21;99199.22;5070729;28;20123;-70
2022/05/28 06:15:09;;;;;;;1.05;0.50;;;;;;;25.37;40.86;99194.00;5070954;28;20076;-67
2022/05/28 06:17:35;;;;;;;0.35;0.35;;;;;;;25.35;41.06;99202.00;5070320;28;20072;-67
2022/05/28 06:20:03;;;;;;;0.35;0.35;;;;;;;25.39;40.77;99197.19;5070404;28;20131;-67
2022/05/28 06:22:29;;;;;;;0.40;0.40;;;;;;;25.39;40.72;99186.78;5070598;28;20036;-67
2022/05/28 06:24:55;;;;;;;0.40;0.40;;;;;;;25.37;40.84;99188.41;5070402;28;20117;-67
2022/05/28 06:27:20;;;;;;;0.38;0.38;;;;;;;25.36;40.98;99190.41;5070846;28;20041;-67
2022/05/28 06:29:46;;;;;;;0.60;0.45;;;;;;;25.37;40.87;99196.81;5068439;28;20450;-67
2022/05/28 06:32:11;;;;;;;0.50;0.50;;;;;;;25.38;40.99;99185.19;5070672;28;20055;-67
2022/05/28 06:34:37;;;;;;;0.52;0.50;;;;;;;25.42;40.64;99182.34;5070520;28;20043;-67
2022/05/28 06:37:05;;;;;;;0.35;0.30;;;;;;;25.39;40.90;99188.78;5070772;28;20051;-67
2022/05/28 06:39:33;;;;;;;1.60;0.60;;;;;;;25.46;40.78;99185.94;5070469;28;20045;-67
2022/05/28 06:41:58;;;;;;;0.90;0.60;;;;;;;25.46;40.72;99180.34;5068130;28;20067;-67
2022/05/28 06:44:23;;;;;;;0.45;0.45;;;;;;;25.44;40.78;99183.56;5058442;28;20416;-67
2022/05/28 06:46:49;;;;;;;0.70;0.40;;;;;;;25.44;40.78;99185.56;5070158;28;20044;-67
2022/05/28 06:49:14;;;;;;;1.08;0.47;;;;;;;25.44;40.48;99183.56;5070262;28;20416;-67
2022/05/28 06:51:40;;;;;;;0.55;0.47;;;;;;;25.44;40.49;99182.75;5070181;28;20036;-67
2022/05/28 06:54:05;;;;;;;0.40;0.40;;;;;;;25.48;40.39;99173.09;5070070;28;20412;-67
2022/05/28 06:56:31;;;;;;;1.00;0.70;;;;;;;25.45;40.49;99173.16;5070085;28;20504;-67
2022/05/28 06:58:56;;;;;;;0.82;0.50;;;;;;;25.44;40.83;99161.16;5070043;28;20079;-67
2022/05/28 07:01:21;;;;;;;0.55;0.50;;;;;;;25.45;40.78;99168.34;5070087;28;20093;-67
2022/05/28 07:03:47;;;;;;;0.50;0.50;;;;;;;25.47;40.39;99153.91;5069455;28;20147;-67
2022/05/28 07:06:13;;;;;;;0.85;0.60;;;;;;;25.43;40.72;99150.34;5070004;28;20063;-67
2022/05/28 07:08:39;;;;;;;0.70;0.60;;;;;;;25.43;40.42;99150.34;5070153;28;20083;-67
2022/05/28 07:11:05;;;;;;;0.60;0.60;;;;;;;25.41;40.50;99147.97;5069981;28;20076;-67
2022/05/28 07:13:31;;;;;;;0.85;0.65;;;;;;;25.44;40.62;99161.16;5070165;28;20446;-67
2022/05/28 07:15:57;;;;;;;0.73;0.60;;;;;;;25.46;40.78;99160.72;5069668;28;20564;-67
2022/05/28 07:18:23;;;;;;;0.60;0.60;;;;;;;25.46;40.48;99153.13;5067785;28;20583;-67
2022/05/28 07:20:49;;;;;;;0.98;0.70;;;;;;;25.44;40.47;99154.75;5069786;28;20045;-67
2022/05/28 07:23:21;;;;;;;0.80;0.70;;;;;;;25.49;40.46;99159.91;5057975;28;20118;-67
2022/05/28 07:25:47;;;;;;;0.68;0.60;;;;;;;25.44;40.62;99157.56;5069762;28;20048;-67
2022/05/28 07:28:25;;;;;;;1.13;0.70;;;;;;;25.41;40.83;99153.56;5069753;28;20040;-67
2022/05/28 07:30:54;;;;;;;1.30;0.88;;;;;;;25.47;40.73;99156.72;5069832;28;20057;-67
2022/05/28 07:33:20;;;;;;;0.98;0.80;;;;;;;25.44;40.58;99146.34;5069620;28;20052;-67
2022/05/28 07:35:46;;;;;;;1.23;0.88;;;;;;;25.48;40.44;99149.91;5069741;28;20080;-67
2022/05/28 07:38:12;;;;;;;1.08;0.70;;;;;;;25.46;40.79;99143.94;5067519;28;20098;-67
2022/05/28 07:40:37;;;;;;;1.17;0.90;;;;;;;25.48;40.74;99155.50;5069404;28;20044;-67
2022/05/28 07:43:03;;;;;;;1.20;0.93;;;;;;;25.47;40.57;99148.31;5058198;28;20056;-67
2022/05/28 07:45:30;;;;;;;1.13;0.93;;;;;;;25.50;40.84;99153.91;5066252;28;20041;-67
2022/05/28 07:47:56;;;;;;;1.25;1.00;;;;;;;25.51;40.69;99147.09;5069439;28;20063;-67
2022/05/28 07:50:22;;;;;;;1.40;1.00;;;;;;;25.48;40.76;99145.09;5069208;28;20045;-67
2022/05/28 07:52:48;;;;;;;1.20;0.90;;;;;;;25.47;40.82;99146.31;5069344;28;20063;-68
2022/05/28 07:55:14;;;;;;;1.20;0.90;;;;;;;25.46;40.73;99143.94;5069597;28;20040;-67
2022/05/28 07:57:39;;;;;;;1.40;1.00;;;;;;;25.49;40.67;99134.69;5050716;28;20068;-67
2022/05/28 08:00:06;;;;;;;1.35;1.05;;;;;;;25.48;40.43;99133.09;5069450;28;20042;-67
2022/05/28 08:02:31;;;;;;;1.60;1.10;;;;;;;25.50;40.41;99137.09;5069328;28;20036;-67
2022/05/28 08:04:56;;;;;;;1.70;1.17;;;;;;;25.52;40.74;99140.28;5069380;28;20041;-67
2022/05/28 08:07:22;;;;;;;1.45;1.00;;;;;;;25.52;40.40;99131.88;5073233;28;20116;-67
2022/05/28 08:09:47;;;;;;;1.25;0.80;;;;;;;25.51;40.71;99132.28;5056151;28;20033;-68
2022/05/28 08:12:13;;;;;;;1.30;1.05;;;;;;;25.52;40.58;99131.88;5075522;28;20072;-67
2022/05/28 08:14:38;;;;;;;1.23;0.90;;;;;;;25.53;40.39;99127.84;5073797;28;20044;-67
2022/05/28 08:17:04;;;;;;;1.30;0.90;;;;;;;25.52;40.79;99125.47;5072716;28;20098;-67
2022/05/28 08:19:31;;;;;;;1.20;0.93;;;;;;;25.56;40.68;99123.41;5072319;28;20124;-67
2022/05/28 08:24:41;;;;;;;0.98;0.80;;;;;;;25.50;40.65;99122.28;5072318;28;20133;-67
2022/05/28 08:27:06;;;;;;;1.65;1.10;;;;;;;25.56;40.68;99136.63;5072482;28;20087;-67
2022/05/28 08:29:32;;;;;;;1.30;1.00;;;;;;;25.55;40.60;99124.63;5072297;28;20048;-67
2022/05/28 08:31:57;;;;;;;1.73;1.13;;;;;;;25.55;40.66;99121.84;5072651;28;20075;-67
2022/05/28 08:34:23;;;;;;;1.67;1.20;;;;;;;25.56;40.37;99117.81;5072787;28;20569;-67
2022/05/28 08:36:48;;;;;;;1.52;1.10;;;;;;;25.57;40.43;99125.00;5072359;28;20037;-67
2022/05/28 08:39:14;;;;;;;1.80;1.20;;;;;;;25.61;40.56;99125.00;5072538;28;20063;-67
2022/05/28 08:41:52;;;;;;;1.10;0.90;;;;;;;25.62;40.56;99127.38;5072270;28;20037;-67
2022/05/28 08:44:39;;;;;;;1.70;1.05;;;;;;;25.64;40.26;99121.34;5059475;28;20047;-67
2022/05/28 08:47:22;;;;;;;1.65;1.25;;;;;;;25.63;40.22;99105.75;5072252;28;20045;-70
2022/05/28 08:49:49;;;;;;;1.55;1.20;;;;;;;25.61;40.19;99097.78;5072390;28;20045;-67
2022/05/28 08:52:25;;;;;;;1.60;1.10;;;;;;;25.60;40.43;99107.38;5072113;28;20056;-67
2022/05/28 08:54:59;;;;;;;1.63;1.10;;;;;;;25.61;40.03;99080.97;5072202;28;20572;-67
2022/05/28 08:57:59;;;;;;;1.40;1.00;;;;;;;25.62;40.56;99082.56;5054154;28;20391;-67
2022/05/28 09:00:37;;;;;;;1.58;1.20;;;;;;;25.67;40.36;99087.72;5070621;28;20120;-67
2022/05/28 09:03:08;;;;;;;1.65;1.08;;;;;;;25.65;40.45;99086.56;5059656;28;20059;-67
2022/05/28 09:05:59;;;;;;;1.55;1.00;;;;;;;25.63;40.20;99072.16;5071817;28;20056;-67
2022/05/28 09:08:36;;;;;;;1.33;1.00;;;;;;;25.66;40.23;99062.94;5068818;28;20054;-67
2022/05/28 09:11:09;;;;;;;1.50;1.10;;;;;;;25.68;40.03;99072.50;5069344;28;20127;-67
2022/05/28 09:13:37;;;;;;;1.45;1.00;;;;;;;25.70;39.95;99067.25;5071866;28;20554;-67
2022/05/28 09:16:05;;;;;;;1.63;1.13;;;;;;;25.71;39.88;99063.25;5071599;28;20200;-67
2022/05/28 09:18:50;;;;;;;1.45;1.10;;;;;;;25.72;39.91;99064.09;5071567;28;20409;-67
2022/05/28 09:21:17;;;;;;;1.33;1.00;;;;;;;25.69;40.18;99071.28;5071461;28;20045;-68
2022/05/28 09:23:54;;;;;;;1.50;0.95;;;;;;;25.66;40.27;99044.09;5071864;28;20578;-67
2022/05/28 09:26:29;;;;;;;1.50;1.00;;;;;;;25.68;40.13;99041.69;5071050;28;21389;-67
2022/05/28 09:29:17;;;;;;;1.30;1.00;;;;;;;25.67;40.20;99036.50;5071552;28;20044;-67
2022/05/28 09:32:00;;;;;;;1.30;1.00;;;;;;;25.69;39.95;99039.66;5071480;28;20102;-67
2022/05/28 09:34:31;;;;;;;1.02;0.90;;;;;;;25.70;39.98;99024.44;5071420;28;20048;-67
2022/05/28 09:37:27;;;;;;;1.50;1.10;;;;;;;25.74;39.85;99033.66;5071466;28;20149;-67
2022/05/28 09:40:02;;;;;;;1.40;0.93;;;;;;;25.77;40.00;99016.78;5070708;28;20080;-67
2022/05/28 09:42:52;;;;;;;1.52;0.80;;;;;;;25.82;39.64;99009.16;5065349;28;20420;-67
2022/05/28 09:45:37;;;;;;;0.90;0.70;;;;;;;25.82;39.84;99012.75;5066652;28;20047;-67
2022/05/28 09:48:02;;;;;;;1.10;0.85;;;;;;;25.83;39.80;99000.31;5071010;28;20053;-70
2022/05/28 09:50:30;;;;;;;1.10;0.90;;;;;;;25.87;39.69;99011.50;5071231;28;20090;-70
2022/05/28 09:56:04;;;;;;;1.33;0.93;;;;;;;25.81;39.74;98980.34;5069587;28;20523;-70
2022/05/28 09:58:35;;;;;;;1.15;0.80;;;;;;;25.86;39.42;98987.47;5070870;28;20049;-70
2022/05/28 10:01:10;;;;;;;1.23;0.90;;;;;;;25.86;39.69;98979.06;5070921;28;20052;-70
2022/05/28 10:06:25;;;;;;;1.00;0.75;;;;;;;25.83;39.45;98971.50;5071121;28;20060;-70
2022/05/28 10:08:51;;;;;;;1.08;0.80;;;;;;;25.87;39.35;98966.66;5071010;28;20056;-70
2022/05/28 10:11:22;;;;;;;1.15;0.75;;;;;;;25.85;39.36;98955.84;5070765;28;20045;-70
2022/05/28 10:13:51;;;;;;;0.90;0.60;;;;;;;25.89;39.46;98964.22;5070697;28;20511;-70
2022/05/28 10:16:26;;;;;;;1.20;0.80;;;;;;;25.91;39.41;98958.97;5070586;28;20060;-70
2022/05/28 10:18:57;;;;;;;1.00;0.70;;;;;;;25.93;39.22;98962.16;5070755;28;20524;-70
2022/05/28 10:21:31;;;;;;;0.85;0.70;;;;;;;25.90;39.11;98958.19;5070480;28;20048;-70
2022/05/28 10:24:01;;;;;;;0.90;0.70;;;;;;;25.84;39.20;98950.66;5070614;28;20519;-70
2022/05/28 10:26:39;;;;;;;0.80;0.60;;;;;;;25.84;39.30;98959.06;5070502;28;20051;-70
2022/05/28 10:29:16;;;;;;;0.73;0.52;;;;;;;25.88;39.05;98954.22;5070649;28;20412;-70
2022/05/28 10:31:46;;;;;;;0.60;0.50;;;;;;;25.88;39.17;98951.44;5070238;28;20111;-70
2022/05/28 10:34:27;;;;;;;0.80;0.63;;;;;;;25.82;39.54;98945.50;5070554;28;20072;-70
2022/05/28 10:36:52;;;;;;;0.90;0.68;;;;;;;25.86;39.44;98940.66;5069877;28;20044;-70
2022/05/28 10:39:18;;;;;;;1.08;0.65;;;;;;;25.85;39.53;98943.84;5070573;28;20056;-70
2022/05/28 10:41:46;;;;;;;0.70;0.60;;;;;;;25.87;39.44;98938.63;5070083;28;20049;-70
2022/05/28 10:44:13;;;;;;;0.68;0.50;;;;;;;25.92;39.21;98932.53;5056826;28;20045;-70
2022/05/28 10:46:44;;;;;;;0.80;0.52;;;;;;;25.92;39.38;98935.34;5070423;28;20052;-70
2022/05/28 10:49:45;;;;;;;0.50;0.50;;;;;;;25.95;39.16;98924.09;5070312;28;20040;-70
2022/05/28 10:52:32;;;;;;;0.70;0.60;;;;;;;26.00;39.04;98928.44;5068879;28;20055;-70
2022/05/28 10:55:10;;;;;;;0.73;0.60;;;;;;;26.00;38.88;98914.41;5070149;28;20139;-70
2022/05/28 10:58:00;;;;;;;0.65;0.50;;;;;;;25.96;38.91;98916.50;5069855;28;20037;-70
2022/05/28 11:00:57;;;;;;;0.40;0.40;;;;;;;25.98;38.87;98912.03;5069996;28;20055;-70
2022/05/28 11:03:51;;;;;;;0.60;0.50;;;;;;;25.98;38.94;98902.84;5068163;28;20127;-70
2022/05/28 11:06:53;;;;;;;0.65;0.50;;;;;;;25.95;38.91;98906.50;5069014;28;20045;-70
2022/05/28 11:09:39;;;;;;;1.30;0.60;;;;;;;25.92;39.08;98894.09;5049403;28;20135;-70
2022/05/28 11:12:31;;;;;;;0.50;0.50;;;;;;;25.96;38.82;98894.84;5062619;28;20186;-70
2022/05/28 11:15:15;;;;;;;0.50;0.50;;;;;;;25.99;38.85;98879.19;5057664;28;20497;-68
2022/05/28 11:18:02;;;;;;;0.65;0.40;;;;;;;26.00;38.84;98866.78;5069783;28;20053;-67
2022/05/28 11:20:36;;;;;;;0.63;0.50;;;;;;;26.07;38.74;98872.25;5050347;28;20149;-67
2022/05/28 11:23:16;;;;;;;0.60;0.45;;;;;;;25.93;38.88;98866.88;5069631;28;20114;-67
2022/05/28 11:26:04;;;;;;;0.52;0.50;;;;;;;25.93;38.92;98872.47;5069853;28;20052;-67
2022/05/28 11:28:35;;;;;;;0.75;0.60;;;;;;;25.92;39.01;98866.09;5057136;28;20114;-67
2022/05/28 11:31:42;;;;;;;0.65;0.50;;;;;;;25.92;38.61;98862.50;5069908;28;20048;-68
2022/05/28 11:34:17;;;;;;;0.40;0.35;;;;;;;25.98;38.77;98860.81;4999437;28;20136;-70
2022/05/28 11:36:58;;;;;;;0.52;0.43;;;;;;;25.90;38.68;98850.91;5007559;28;20145;-70
2022/05/28 11:39:32;;;;;;;0.50;0.50;;;;;;;25.93;38.92;98853.69;5007688;28;20108;-70
2022/05/28 11:42:15;;;;;;;0.63;0.40;;;;;;;26.01;38.25;98845.97;4992104;28;20078;-70
2022/05/28 11:44:47;;;;;;;0.60;0.50;;;;;;;26.06;38.12;98849.06;5007671;28;20061;-67
2022/05/28 11:47:21;;;;;;;0.52;0.40;;;;;;;26.05;38.16;98841.88;5007492;28;20415;-67
2022/05/28 11:52:56;;;;;;;0.77;0.50;;;;;;;26.00;38.30;98822.75;4994310;28;20136;-67
2022/05/28 11:55:27;;;;;;;0.57;0.50;;;;;;;26.00;38.40;98822.75;5007443;28;20128;-67
2022/05/28 11:58:04;;;;;;;0.45;0.40;;;;;;;25.96;38.27;98821.22;5007252;28;20445;-67
2022/05/28 12:00:36;;;;;;;0.40;0.40;;;;;;;25.96;38.46;98821.22;5007224;28;20049;-67